createdAt,value
2022-10-13T00:00:18.729Z,79.35
2022-10-13T00:02:48.619Z,79.34
2022-10-13T00:05:18.096Z,79.36
2022-10-13T00:07:47.629Z,79.29
2022-10-13T00:10:18.362Z,79.37
2022-10-13T00:12:47.361Z,79.52
2022-10-13T00:15:18.769Z,79.72
2022-10-13T00:17:49.352Z,79.88
2022-10-13T00:20:18.504Z,80.05
2022-10-13T00:22:47.569Z,80.11
2022-10-13T00:25:17.655Z,80.15
2022-10-13T00:27:48.894Z,80.23
2022-10-13T00:30:18.914Z,80.25
2022-10-13T00:32:49.316Z,80.23
2022-10-13T00:35:18.579Z,80.10
2022-10-13T00:37:48.332Z,79.97
2022-10-13T00:40:18.535Z,80.02
2022-10-13T00:42:49.738Z,79.99
2022-10-13T00:45:23.696Z,79.91
2022-10-13T00:47:56.862Z,79.89
2022-10-13T00:50:38.527Z,79.85
2022-10-13T00:53:08.609Z,79.95
2022-10-13T00:55:39.536Z,80.14
2022-10-13T00:58:10.784Z,80.47
2022-10-13T01:00:42.015Z,80.69
2022-10-13T01:03:11.970Z,80.77
2022-10-13T01:05:43.175Z,80.78
2022-10-13T01:08:15.612Z,80.80
2022-10-13T01:11:05.831Z,80.71
2022-10-13T01:14:07.044Z,80.73
2022-10-13T01:16:58.638Z,80.71
2022-10-13T01:19:59.436Z,80.63
2022-10-13T01:22:52.128Z,80.47
2022-10-13T01:25:38.937Z,80.54
2022-10-13T01:28:33.724Z,80.53
2022-10-13T01:31:18.215Z,80.49
2022-10-13T01:34:13.387Z,80.38
2022-10-13T01:37:12.272Z,80.40
2022-10-13T01:39:54.677Z,80.40
2022-10-13T01:42:41.187Z,80.42
2022-10-13T01:45:12.568Z,80.49
2022-10-13T01:47:42.924Z,80.58
2022-10-13T01:50:12.303Z,80.60
2022-10-13T01:52:42.800Z,80.67
2022-10-13T01:55:13.300Z,80.65
2022-10-13T01:57:45.600Z,80.58
2022-10-13T02:00:19.924Z,80.44
2022-10-13T02:03:15.768Z,80.45
2022-10-13T02:05:56.516Z,80.42
2022-10-13T02:08:47.865Z,80.34
2022-10-13T02:11:24.462Z,80.33
2022-10-13T02:14:13.318Z,80.27
2022-10-13T02:16:44.315Z,80.43
2022-10-13T02:19:15.807Z,80.38
2022-10-13T02:21:47.770Z,80.36
2022-10-13T02:24:19.426Z,80.30
2022-10-13T02:26:50.827Z,80.21
2022-10-13T02:29:22.555Z,80.06
2022-10-13T02:31:54.890Z,79.93
2022-10-13T02:34:25.425Z,79.87
2022-10-13T02:36:56.271Z,79.79
2022-10-13T02:39:26.052Z,79.67
2022-10-13T02:41:56.859Z,79.66
2022-10-13T02:44:27.243Z,79.67
2022-10-13T02:46:56.642Z,79.60
2022-10-13T02:49:25.655Z,79.58
2022-10-13T02:51:55.849Z,79.58
2022-10-13T02:54:24.948Z,79.65
2022-10-13T02:56:54.303Z,79.71
2022-10-13T02:59:23.799Z,79.81
2022-10-13T03:01:53.510Z,79.90
2022-10-13T03:04:24.866Z,79.90
2022-10-13T03:06:55.947Z,79.80
2022-10-13T03:09:26.397Z,79.81
2022-10-13T03:11:57.129Z,79.86
2022-10-13T03:14:26.617Z,79.81
2022-10-13T03:16:56.071Z,79.74
2022-10-13T03:19:25.308Z,79.66
2022-10-13T03:21:54.986Z,79.64
2022-10-13T03:24:24.470Z,79.60
2022-10-13T03:26:53.386Z,79.61
2022-10-13T03:29:23.188Z,79.51
2022-10-13T03:31:52.657Z,79.47
2022-10-13T03:34:24.665Z,79.49
2022-10-13T03:36:55.853Z,79.54
2022-10-13T03:39:26.510Z,79.68
2022-10-13T03:41:56.559Z,79.66
2022-10-13T03:44:26.070Z,79.66
2022-10-13T03:46:57.485Z,79.69
2022-10-13T03:49:26.322Z,79.81
2022-10-13T03:51:55.114Z,79.82
2022-10-13T03:54:24.417Z,79.83
2022-10-13T03:56:56.188Z,79.75
2022-10-13T03:59:25.122Z,79.68
2022-10-13T04:01:54.348Z,79.73
2022-10-13T04:04:24.295Z,79.70
2022-10-13T04:06:57.312Z,79.73
2022-10-13T04:09:27.979Z,79.78
2022-10-13T04:11:59.722Z,79.84
2022-10-13T04:14:28.710Z,79.88
2022-10-13T04:17:00.398Z,79.97
2022-10-13T04:19:32.420Z,80.05
2022-10-13T04:22:03.598Z,80.11
2022-10-13T04:24:33.968Z,80.07
2022-10-13T04:27:03.329Z,80.03
2022-10-13T04:29:34.617Z,80.02
2022-10-13T04:32:04.339Z,80.00
2022-10-13T04:34:33.600Z,80.02
2022-10-13T04:37:02.747Z,80.15
2022-10-13T04:39:33.180Z,80.24
2022-10-13T04:42:02.383Z,80.35
2022-10-13T04:44:33.314Z,80.38
2022-10-13T04:47:02.575Z,80.38
2022-10-13T04:49:33.183Z,80.34
2022-10-13T04:52:03.265Z,80.28
2022-10-13T04:54:32.466Z,80.30
2022-10-13T04:57:01.823Z,80.23
2022-10-13T04:59:31.304Z,80.19
2022-10-13T05:02:00.378Z,80.19
2022-10-13T05:04:30.258Z,80.20
2022-10-13T05:07:18.298Z,80.26
2022-10-13T05:09:33.548Z,80.19
2022-10-13T05:12:03.169Z,80.13
2022-10-13T05:14:34.812Z,80.16
2022-10-13T05:17:05.350Z,80.19
2022-10-13T05:19:35.013Z,80.17
2022-10-13T05:22:04.969Z,80.13
2022-10-13T05:24:38.639Z,80.16
2022-10-13T05:27:11.059Z,80.13
2022-10-13T05:29:40.497Z,80.13
2022-10-13T05:32:09.424Z,80.06
2022-10-13T05:34:38.208Z,80.03
2022-10-13T05:37:07.423Z,79.97
2022-10-13T05:39:37.473Z,79.98
2022-10-13T05:42:09.102Z,80.03
2022-10-13T05:44:39.042Z,79.86
2022-10-13T05:47:08.764Z,79.79
2022-10-13T05:49:40.888Z,79.78
2022-10-13T05:52:11.242Z,79.66
2022-10-13T05:54:47.342Z,79.57
2022-10-13T05:57:24.466Z,79.52
2022-10-13T06:00:01.066Z,79.43
2022-10-13T06:02:34.725Z,79.35
2022-10-13T06:05:05.559Z,79.28
2022-10-13T06:07:35.153Z,79.23
2022-10-13T06:10:04.825Z,79.09
2022-10-13T06:12:35.508Z,78.96
2022-10-13T06:15:06.728Z,78.81
2022-10-13T06:17:38.370Z,78.73
2022-10-13T06:20:10.670Z,78.67
2022-10-13T06:22:40.040Z,78.59
2022-10-13T06:25:10.758Z,78.54
2022-10-13T06:27:41.188Z,78.39
2022-10-13T06:30:11.428Z,78.23
2022-10-13T06:32:42.245Z,78.12
2022-10-13T06:35:12.365Z,78.10
2022-10-13T06:37:43.792Z,77.91
2022-10-13T06:40:14.592Z,77.80
2022-10-13T06:42:50.703Z,77.77
2022-10-13T06:45:20.852Z,77.65
2022-10-13T06:47:49.922Z,77.56
2022-10-13T06:50:19.607Z,77.45
2022-10-13T06:52:50.120Z,77.30
2022-10-13T06:55:19.649Z,77.11
2022-10-13T06:57:49.982Z,76.92
2022-10-13T07:00:21.660Z,76.77
2022-10-13T07:02:52.053Z,76.55
2022-10-13T07:05:21.776Z,76.33
2022-10-13T07:07:54.642Z,76.14
2022-10-13T07:10:24.602Z,75.95
2022-10-13T07:12:54.872Z,75.82
2022-10-13T07:15:25.208Z,75.60
2022-10-13T07:17:55.429Z,75.46
2022-10-13T07:20:25.506Z,75.28
2022-10-13T07:22:56.418Z,75.30
2022-10-13T07:25:27.988Z,75.30
2022-10-13T07:27:59.535Z,75.21
2022-10-13T07:30:29.657Z,75.04
2022-10-13T07:33:00.264Z,74.81
2022-10-13T07:35:30.990Z,74.69
2022-10-13T07:38:01.383Z,74.60
2022-10-13T07:40:31.337Z,74.47
2022-10-13T07:43:01.537Z,74.34
2022-10-13T07:45:31.738Z,74.33
2022-10-13T07:48:00.556Z,74.20
2022-10-13T07:50:30.488Z,73.97
2022-10-13T07:52:59.873Z,73.88
2022-10-13T07:55:28.941Z,73.82
2022-10-13T07:58:03.487Z,73.77
2022-10-13T08:00:34.925Z,73.61
2022-10-13T08:03:06.747Z,73.64
2022-10-13T08:05:39.011Z,73.24
2022-10-13T08:08:07.623Z,72.93
2022-10-13T08:10:37.988Z,72.77
2022-10-13T08:13:07.262Z,72.58
2022-10-13T08:15:38.013Z,73.05
2022-10-13T08:18:09.227Z,72.60
2022-10-13T08:20:43.916Z,72.21
2022-10-13T08:23:13.921Z,71.75
2022-10-13T08:25:45.060Z,71.51
2022-10-13T08:28:25.795Z,71.40
2022-10-13T08:30:59.399Z,71.18
2022-10-13T08:33:29.227Z,71.13
2022-10-13T08:35:59.102Z,71.02
2022-10-13T08:38:28.699Z,70.87
2022-10-13T08:40:57.850Z,70.73
2022-10-13T08:43:27.602Z,70.58
2022-10-13T08:46:00.936Z,70.32
2022-10-13T08:48:32.906Z,70.36
2022-10-13T08:51:03.703Z,70.46
2022-10-13T08:53:39.888Z,70.00
2022-10-13T08:56:22.399Z,69.77
2022-10-13T08:58:53.917Z,69.76
2022-10-13T09:01:26.979Z,69.70
2022-10-13T09:04:33.006Z,69.41
2022-10-13T09:07:23.512Z,69.27
2022-10-13T09:09:55.567Z,69.06
2022-10-13T09:12:26.604Z,69.07
2022-10-13T09:15:09.610Z,69.05
2022-10-13T09:17:40.717Z,68.83
2022-10-13T09:20:23.493Z,68.62
2022-10-13T09:23:21.498Z,68.44
2022-10-13T09:25:51.912Z,68.14
2022-10-13T09:28:30.044Z,68.07
2022-10-13T09:31:03.532Z,68.13
2022-10-13T09:33:36.948Z,68.10
2022-10-13T09:36:13.807Z,67.46
2022-10-13T09:38:47.202Z,67.26
2022-10-13T09:41:21.393Z,66.94
2022-10-13T09:43:56.029Z,66.10
2022-10-13T09:46:48.896Z,65.50
2022-10-13T09:49:44.809Z,65.26
2022-10-13T09:52:17.740Z,64.99
2022-10-13T09:54:53.022Z,64.83
2022-10-13T09:57:47.204Z,64.72
2022-10-13T10:00:24.790Z,64.33
2022-10-13T10:03:20.469Z,64.46
2022-10-13T10:05:58.227Z,64.44
2022-10-13T10:09:03.352Z,64.38
2022-10-13T10:11:37.920Z,64.23
2022-10-13T10:14:28.123Z,63.93
2022-10-13T10:17:19.473Z,63.79
2022-10-13T10:20:06.331Z,63.83
2022-10-13T10:23:17.749Z,63.57
2022-10-13T10:25:51.126Z,63.46
2022-10-13T10:28:58.324Z,63.27
2022-10-13T10:32:07.511Z,63.13
2022-10-13T10:34:45.418Z,63.02
2022-10-13T10:37:38.130Z,62.98
2022-10-13T10:40:57.251Z,63.02
2022-10-13T10:43:41.377Z,62.93
2022-10-13T10:46:20.539Z,62.97
2022-10-13T10:48:55.280Z,62.79
2022-10-13T10:51:29.415Z,62.71
2022-10-13T10:54:09.261Z,62.63
2022-10-13T10:56:42.585Z,62.38
2022-10-13T10:59:40.551Z,62.38
2022-10-13T11:02:33.017Z,62.28
2022-10-13T11:05:06.114Z,62.48
2022-10-13T11:07:48.779Z,62.44
2022-10-13T11:10:21.140Z,62.57
2022-10-13T11:12:57.513Z,62.37
2022-10-13T11:15:33.470Z,62.28
2022-10-13T11:18:07.578Z,62.09
2022-10-13T11:20:48.294Z,62.04
2022-10-13T11:23:26.877Z,61.96
2022-10-13T11:26:22.359Z,61.83
2022-10-13T11:28:52.485Z,61.87
2022-10-13T11:31:32.050Z,62.12
2022-10-13T11:34:02.177Z,62.14
2022-10-13T11:36:56.138Z,61.98
2022-10-13T11:42:32.667Z,62.24
2022-10-13T11:45:06.541Z,62.41
2022-10-13T11:47:47.851Z,62.47
2022-10-13T11:50:39.269Z,62.51
2022-10-13T11:53:24.596Z,62.59
2022-10-13T11:55:58.656Z,62.56
2022-10-13T11:58:33.761Z,62.45
2022-10-13T12:01:08.534Z,62.55
2022-10-13T12:03:40.918Z,62.67
2022-10-13T12:06:37.106Z,62.48
2022-10-13T12:09:21.067Z,62.33
2022-10-13T12:12:03.718Z,62.15
2022-10-13T12:14:42.956Z,61.92
2022-10-13T12:17:29.795Z,61.72
2022-10-13T12:20:06.925Z,61.49
2022-10-13T12:22:40.156Z,61.59
2022-10-13T12:25:10.230Z,61.58
2022-10-13T12:27:47.110Z,61.44
2022-10-13T12:30:22.969Z,61.53
2022-10-13T12:32:54.467Z,61.71
2022-10-13T12:35:32.278Z,61.86
2022-10-13T12:38:09.578Z,61.71
2022-10-13T12:40:41.707Z,61.98
2022-10-13T12:43:13.234Z,62.17
2022-10-13T12:45:45.329Z,62.48
2022-10-13T12:48:35.730Z,62.64
2022-10-13T12:51:19.205Z,62.96
2022-10-13T12:53:48.556Z,63.20
2022-10-13T12:56:30.723Z,63.08
2022-10-13T12:59:00.949Z,63.06
2022-10-13T13:01:34.846Z,63.10
2022-10-13T13:04:27.747Z,63.43
2022-10-13T13:07:01.361Z,63.69
2022-10-13T13:09:37.572Z,63.76
2022-10-13T13:12:14.876Z,63.74
2022-10-13T13:14:49.505Z,63.84
2022-10-13T13:17:45.235Z,63.68
2022-10-13T13:19:55.484Z,63.79
2022-10-13T13:22:29.438Z,63.93
2022-10-13T13:24:58.802Z,64.01
2022-10-13T13:27:34.639Z,64.21
2022-10-13T13:30:04.194Z,64.30
2022-10-13T13:32:34.243Z,64.40
2022-10-13T13:35:05.653Z,64.37
2022-10-13T13:37:43.377Z,64.35
2022-10-13T13:40:19.672Z,64.43
2022-10-13T13:42:49.386Z,64.45
2022-10-13T13:45:21.127Z,64.49
2022-10-13T13:47:56.749Z,64.38
2022-10-13T13:50:27.655Z,64.43
2022-10-13T13:53:00.956Z,64.55
2022-10-13T13:55:30.616Z,64.49
2022-10-13T13:58:00.571Z,64.47
2022-10-13T14:00:31.510Z,64.63
2022-10-13T14:03:01.566Z,64.95
2022-10-13T14:05:31.479Z,65.04
2022-10-13T14:08:01.998Z,65.09
2022-10-13T14:10:31.838Z,65.14
2022-10-13T14:13:02.724Z,65.22
2022-10-13T14:15:33.473Z,65.10
2022-10-13T14:18:04.625Z,64.99
2022-10-13T14:20:34.964Z,65.14
2022-10-13T14:23:04.515Z,65.12
2022-10-13T14:25:34.927Z,65.22
2022-10-13T14:28:04.552Z,65.29
2022-10-13T14:30:34.145Z,65.30
2022-10-13T14:33:04.821Z,65.31
2022-10-13T14:35:33.748Z,65.54
2022-10-13T14:38:04.686Z,65.66
2022-10-13T14:40:35.851Z,65.83
2022-10-13T14:43:05.695Z,65.79
2022-10-13T14:45:37.954Z,65.99
2022-10-13T14:48:08.178Z,65.95
2022-10-13T14:50:38.403Z,65.98
2022-10-13T14:53:11.356Z,65.94
2022-10-13T14:55:41.186Z,66.18
2022-10-13T14:58:11.664Z,66.35
2022-10-13T15:00:43.147Z,66.65
2022-10-13T15:03:13.481Z,67.15
2022-10-13T15:05:43.722Z,67.71
2022-10-13T15:08:13.474Z,68.20
2022-10-13T15:10:42.820Z,68.60
2022-10-13T15:13:12.119Z,68.98
2022-10-13T15:15:48.414Z,69.58
2022-10-13T15:18:17.406Z,69.87
2022-10-13T15:20:50.087Z,70.25
2022-10-13T15:23:20.163Z,70.65
2022-10-13T15:25:59.017Z,71.03
2022-10-13T15:28:31.851Z,71.26
2022-10-13T15:31:01.848Z,71.50
2022-10-13T15:33:31.505Z,71.73
2022-10-13T15:36:02.087Z,72.01
2022-10-13T15:38:31.070Z,72.21
2022-10-13T15:41:02.585Z,72.41
2022-10-13T15:43:32.327Z,72.71
2022-10-13T15:46:08.715Z,73.08
2022-10-13T15:48:38.125Z,73.36
2022-10-13T15:51:13.982Z,73.60
2022-10-13T15:53:44.004Z,73.79
2022-10-13T15:56:14.961Z,73.97
2022-10-13T15:58:46.574Z,74.06
2022-10-13T16:01:15.828Z,74.24
2022-10-13T16:03:44.585Z,74.41
2022-10-13T16:06:16.031Z,74.61
2022-10-13T16:08:45.952Z,74.81
2022-10-13T16:11:17.026Z,74.91
2022-10-13T16:13:48.414Z,75.00
2022-10-13T16:16:17.837Z,75.11
2022-10-13T16:18:47.486Z,75.20
2022-10-13T16:21:23.514Z,75.30
2022-10-13T16:23:54.439Z,75.38
2022-10-13T16:26:24.787Z,75.41
2022-10-13T16:28:58.039Z,75.56
2022-10-13T16:31:28.817Z,75.81
2022-10-13T16:33:58.297Z,76.05
2022-10-13T16:36:28.255Z,76.31
2022-10-13T16:38:59.389Z,76.55
2022-10-13T16:41:28.296Z,76.77
2022-10-13T16:43:57.290Z,76.98
2022-10-13T16:46:27.452Z,77.12
2022-10-13T16:48:57.195Z,77.27
2022-10-13T16:51:28.887Z,77.41
2022-10-13T16:54:03.945Z,77.55
2022-10-13T16:56:31.375Z,77.70
2022-10-13T16:59:02.372Z,77.67
2022-10-13T17:01:32.406Z,77.79
2022-10-13T17:04:02.289Z,77.89
2022-10-13T17:06:31.089Z,78.02
2022-10-13T17:09:03.351Z,78.12
2022-10-13T17:11:34.361Z,78.22
2022-10-13T17:14:05.490Z,78.27
2022-10-13T17:16:37.028Z,78.30
2022-10-13T17:19:07.548Z,78.39
2022-10-13T17:21:37.754Z,78.55
2022-10-13T17:24:09.222Z,78.74
2022-10-13T17:26:38.279Z,78.86
2022-10-13T17:29:07.474Z,78.93
2022-10-13T17:31:37.630Z,79.06
2022-10-13T17:34:09.183Z,79.29
2022-10-13T17:36:39.630Z,79.46
2022-10-13T17:39:13.723Z,79.56
2022-10-13T17:41:43.420Z,79.60
2022-10-13T17:44:13.567Z,79.62
2022-10-13T17:46:48.797Z,79.67
2022-10-13T17:49:18.539Z,79.71
2022-10-13T17:51:51.551Z,79.80
2022-10-13T17:54:21.034Z,79.89
2022-10-13T17:56:51.006Z,79.86
2022-10-13T17:59:20.641Z,79.95
2022-10-13T18:01:51.013Z,80.06
2022-10-13T18:04:22.116Z,80.24
2022-10-13T18:06:51.710Z,80.42
2022-10-13T18:09:24.282Z,80.51
2022-10-13T18:11:55.425Z,80.64
2022-10-13T18:14:27.023Z,80.65
2022-10-13T18:16:56.396Z,80.65
2022-10-13T18:19:26.872Z,80.62
2022-10-13T18:21:56.124Z,80.60
2022-10-13T18:24:26.106Z,80.64
2022-10-13T18:26:56.029Z,80.66
2022-10-13T18:29:27.253Z,80.73
2022-10-13T18:31:57.093Z,80.81
2022-10-13T18:34:26.512Z,80.83
2022-10-13T18:36:58.172Z,80.96
2022-10-13T18:39:29.229Z,81.19
2022-10-13T18:41:59.066Z,81.27
2022-10-13T18:44:30.250Z,81.27
2022-10-13T18:47:00.585Z,81.33
2022-10-13T18:49:31.357Z,81.40
2022-10-13T18:52:01.473Z,81.47
2022-10-13T18:54:31.794Z,81.53
2022-10-13T18:57:01.623Z,81.54
2022-10-13T18:59:30.868Z,81.51
2022-10-13T19:02:01.332Z,81.49
2022-10-13T19:04:31.204Z,81.43
2022-10-13T19:07:02.032Z,81.37
2022-10-13T19:09:31.050Z,81.35
2022-10-13T19:12:00.512Z,81.38
2022-10-13T19:14:31.532Z,81.36
2022-10-13T19:17:02.255Z,81.35
2022-10-13T19:19:32.515Z,81.38
2022-10-13T19:22:03.727Z,81.40
2022-10-13T19:24:32.667Z,81.53
2022-10-13T19:27:02.044Z,81.53
2022-10-13T19:29:34.234Z,81.50
2022-10-13T19:32:04.590Z,81.44
2022-10-13T19:34:34.562Z,81.42
2022-10-13T19:37:04.992Z,81.41
2022-10-13T19:39:34.886Z,81.42
2022-10-13T19:42:04.514Z,81.42
2022-10-13T19:44:35.960Z,81.38
2022-10-13T19:47:05.872Z,81.24
2022-10-13T19:49:37.865Z,81.10
2022-10-13T19:52:07.423Z,81.10
2022-10-13T19:54:40.349Z,81.19
2022-10-13T19:57:10.772Z,81.24
2022-10-13T19:59:44.052Z,81.26
2022-10-13T20:02:12.228Z,81.30
2022-10-13T20:04:41.610Z,81.27
2022-10-13T20:07:11.188Z,81.34
2022-10-13T20:09:42.461Z,81.39
2022-10-13T20:12:14.022Z,81.40
2022-10-13T20:14:45.808Z,81.39
2022-10-13T20:17:16.385Z,81.31
2022-10-13T20:19:45.849Z,81.20
2022-10-13T20:22:15.395Z,81.18
2022-10-13T20:24:46.003Z,81.25
2022-10-13T20:27:15.626Z,81.38
2022-10-13T20:29:44.557Z,81.51
2022-10-13T20:32:15.250Z,81.60
2022-10-13T20:34:44.415Z,81.75
2022-10-13T20:37:14.262Z,81.81
2022-10-13T20:39:44.634Z,81.84
2022-10-13T20:42:14.876Z,81.94
2022-10-13T20:44:45.303Z,81.94
2022-10-13T20:47:19.602Z,81.96
2022-10-13T20:49:49.555Z,82.06
2022-10-13T20:52:21.060Z,82.25
2022-10-13T20:54:50.181Z,82.35
2022-10-13T20:57:19.855Z,82.38
2022-10-13T20:59:50.321Z,82.37
2022-10-13T21:02:20.894Z,82.38
2022-10-13T21:04:52.807Z,82.35
2022-10-13T21:07:22.943Z,82.39
2022-10-13T21:09:54.046Z,82.51
2022-10-13T21:12:23.837Z,82.63
2022-10-13T21:14:54.086Z,82.79
2022-10-13T21:17:24.412Z,82.81
2022-10-13T21:19:56.228Z,82.78
2022-10-13T21:22:26.087Z,82.83
2022-10-13T21:24:54.950Z,82.83
2022-10-13T21:27:24.697Z,82.85
2022-10-13T21:29:53.609Z,82.82
2022-10-13T21:32:22.622Z,82.77
2022-10-13T21:34:53.963Z,82.78
2022-10-13T21:37:24.897Z,82.75
2022-10-13T21:39:55.025Z,82.71
2022-10-13T21:42:24.836Z,82.74
2022-10-13T21:44:54.061Z,82.86
2022-10-13T21:47:25.202Z,82.82
2022-10-13T21:49:54.138Z,82.70
2022-10-13T21:52:24.187Z,82.61
2022-10-13T21:54:53.675Z,82.57
2022-10-13T21:57:23.457Z,82.52
2022-10-13T21:59:53.345Z,82.44
2022-10-13T22:02:22.752Z,82.40
2022-10-13T22:04:51.906Z,82.36
2022-10-13T22:07:22.551Z,82.29
2022-10-13T22:09:51.926Z,82.19
2022-10-13T22:12:21.620Z,82.08
2022-10-13T22:14:52.412Z,82.01
2022-10-13T22:17:22.854Z,82.13
2022-10-13T22:19:55.333Z,82.31
2022-10-13T22:22:30.098Z,82.55
2022-10-13T22:24:56.763Z,82.65
2022-10-13T22:27:27.773Z,82.72
2022-10-13T22:29:57.019Z,82.86
2022-10-13T22:32:27.068Z,82.96
2022-10-13T22:34:56.018Z,83.00
2022-10-13T22:37:25.288Z,83.01
2022-10-13T22:39:55.599Z,82.97
2022-10-13T22:42:25.329Z,82.96
2022-10-13T22:44:54.725Z,82.99
2022-10-13T22:47:24.657Z,83.01
2022-10-13T22:49:53.949Z,83.14
2022-10-13T22:52:25.176Z,83.18
2022-10-13T22:54:55.839Z,83.31
2022-10-13T22:57:25.060Z,83.47
2022-10-13T22:59:55.158Z,83.51
2022-10-13T23:02:24.430Z,83.38
2022-10-13T23:04:54.223Z,83.18
2022-10-13T23:07:24.553Z,83.10
2022-10-13T23:09:53.364Z,83.04
2022-10-13T23:12:23.002Z,83.00
2022-10-13T23:14:52.830Z,82.93
2022-10-13T23:17:22.816Z,82.83
2022-10-13T23:19:58.145Z,82.79
2022-10-13T23:22:28.005Z,82.61
2022-10-13T23:24:58.931Z,82.77
2022-10-13T23:27:28.359Z,82.81
2022-10-13T23:29:59.774Z,82.91
2022-10-13T23:32:29.715Z,82.94
2022-10-13T23:34:59.839Z,82.92
2022-10-13T23:37:30.578Z,83.01
2022-10-13T23:40:00.384Z,82.98
2022-10-13T23:42:29.808Z,82.95
2022-10-13T23:44:58.668Z,82.96
2022-10-13T23:47:28.772Z,83.05
2022-10-13T23:49:58.116Z,83.11
2022-10-13T23:52:27.505Z,83.05
2022-10-13T23:54:56.138Z,82.89
2022-10-13T23:57:29.631Z,82.71
2022-10-13T23:59:58.795Z,82.67
